Latest Weather Observations for Sydney Harbour

IDN60901

Issued at 6:42 pm EDT Thursday 20 January 2022 (issued every 10 minutes, with the page automatically refreshed every 10 minutes)

About weather observations | Map of Sydney area stations | Latest observations for Sydney area | Other Formats
Station Details ID: 066196 Name: WEDDING CAKE WEST Lat: -33.84 Lon: 151.26 Height: 6.0 m
Data from the previous 72 hours. | See also: Recent months at Sydney Harbour
Date/Time
EDT
Temp
°C
App
Temp
°C
Dew
Point
°C
Rel
Hum
%
Delta-T
°C
Wind Press
QNH
hPa
Press
MSL
hPa
Rain since
9am
mm
Dir  Spd
km/h
Gust
km/h
Spd
kts
Gust
kts
20/06:30pm 21.8 - - - - SSE 26 35 14 19 - - -
20/06:00pm 21.9 - - - - SSE 30 41 16 22 - - -
20/05:30pm 22.2 - - - - SSE 32 43 17 23 - - -
20/05:00pm 22.0 - - - - SSE 32 44 17 24 - - -
20/04:30pm 21.9 - - - - SSE 28 39 15 21 - - -
20/04:00pm 21.4 - - - - SSE 30 46 16 25 - - -
20/03:30pm 21.4 - - - - SSE 33 43 18 23 - - -
20/03:00pm 21.5 - - - - SSE 30 46 16 25 - - -
20/02:30pm 22.1 - - - - SSE 30 43 16 23 - - -
20/02:00pm 21.9 - - - - SE 32 44 17 24 - - -
20/01:30pm 21.6 - - - - SE 35 44 19 24 - - -
20/01:00pm 21.9 - - - - SSE 30 43 16 23 - - -
20/12:30pm 21.3 - - - - SSE 28 37 15 20 - - -
20/12:00pm 20.7 - - - - SSE 24 33 13 18 - - -
20/11:30am 19.7 - - - - SSE 24 37 13 20 - - -
20/11:03am 21.6 - - - - SSE 30 48 16 26 - - -
20/11:00am 21.8 - - - - SSE 30 39 16 21 - - -
20/10:30am 22.3 - - - - SSE 32 44 17 24 - - -
20/10:00am 21.9 - - - - SSE 28 37 15 20 - - -
20/09:30am 21.5 - - - - SSE 35 48 19 26 - - -
20/09:00am 21.7 - - - - SSE 32 46 17 25 - - -
20/08:30am 21.4 - - - - SSE 32 43 17 23 - - -
20/08:03am 21.6 - - - - SSE 28 46 15 25 - - -
20/08:00am 21.6 - - - - SSE 28 41 15 22 - - -
20/07:30am 21.2 - - - - SSE 28 39 15 21 - - -
20/07:00am 20.9 - - - - SE 28 39 15 21 - - -
20/06:30am 21.2 - - - - SSE 28 41 15 22 - - -
20/06:00am 21.4 - - - - SSE 32 43 17 23 - - -
20/05:30am 21.5 - - - - SSE 30 35 16 19 - - -
20/05:00am 21.4 - - - - SSE 37 50 20 27 - - -
20/04:30am 21.4 - - - - SSE 32 43 17 23 - - -
20/04:00am 21.6 - - - - SSE 32 43 17 23 - - -
20/03:30am 21.6 - - - - SSE 33 44 18 24 - - -
20/03:00am 21.5 - - - - SSE 30 41 16 22 - - -
20/02:42am 21.5 - - - - SSE 33 52 18 28 - - -
20/02:30am 21.7 - - - - SSE 35 43 19 23 - - -
20/02:06am 21.4 - - - - SSE 32 50 17 27 - - -
20/02:00am 21.7 - - - - SSE 26 35 14 19 - - -
20/01:30am 21.7 - - - - SSE 28 37 15 20 - - -
20/01:00am 21.8 - - - - SSE 33 46 18 25 - - -
20/12:30am 21.8 - - - - SSE 32 39 17 21 - - -
20/12:00am 21.9 - - - - SSE 33 48 18 26 - - -
 
Date/Time
EDT
Temp
°C
App
Temp
°C
Dew
Point
°C
Rel
Hum
%
Delta-T
°C
Wind Press
QNH
hPa
Press
MSL
hPa
Rain since
9am
mm
Dir  Spd
km/h
Gust
km/h
Spd
kts
Gust
kts
19/11:49pm 21.8 - - - - SSE 32 50 17 27 - - -
19/11:30pm 21.9 - - - - SSE 28 37 15 20 - - -
19/11:00pm 21.7 - - - - SSE 35 46 19 25 - - -
19/10:30pm 22.1 - - - - SSE 32 43 17 23 - - -
19/10:06pm 22.1 - - - - SSE 30 50 16 27 - - -
19/10:00pm 22.1 - - - - SSE 28 37 15 20 - - -
19/09:30pm 21.9 - - - - SSE 33 44 18 24 - - -
19/09:00pm 22.0 - - - - SSE 32 43 17 23 - - -
19/08:30pm 21.8 - - - - S 28 39 15 21 - - -
19/08:09pm 21.8 - - - - SSE 30 48 16 26 - - -
19/08:00pm 21.8 - - - - SSE 35 46 19 25 - - -
19/07:30pm 21.8 - - - - S 35 50 19 27 - - -
19/07:00pm 21.7 - - - - SSE 30 41 16 22 - - -
19/06:30pm 22.0 - - - - SSE 30 41 16 22 - - -
19/06:00pm 21.2 - - - - SSE 33 54 18 29 - - -
19/05:56pm 21.7 - - - - SSE 30 54 16 29 - - -
19/05:30pm 22.3 - - - - SSE 26 35 14 19 - - -
19/05:00pm 22.1 - - - - SSE 33 43 18 23 - - -
19/04:30pm 22.4 - - - - SSE 32 44 17 24 - - -
19/04:00pm 22.5 - - - - SSE 24 35 13 19 - - -
19/03:30pm 22.1 - - - - S 32 41 17 22 - - -
19/03:00pm 22.9 - - - - SSE 26 39 14 21 - - -
19/02:30pm 21.7 - - - - SSE 35 50 19 27 - - -
19/02:00pm 23.0 - - - - SSE 32 44 17 24 - - -
19/01:30pm 23.1 - - - - S 33 46 18 25 - - -
19/01:00pm 22.7 - - - - S 20 30 11 16 - - -
19/12:30pm 22.4 - - - - SSE 26 35 14 19 - - -
19/12:00pm 22.0 - - - - SSE 26 35 14 19 - - -
19/11:30am 22.0 - - - - SSE 22 32 12 17 - - -
19/11:00am 22.0 - - - - S 22 33 12 18 - - -
19/10:30am 21.7 - - - - S 30 43 16 23 - - -
19/10:00am 20.6 - - - - S 26 33 14 18 - - -
19/09:30am 20.1 - - - - SSW 35 44 19 24 - - -
19/09:00am 19.6 - - - - SSW 37 46 20 25 - - -
19/08:30am 19.6 - - - - SSW 39 54 21 29 - - -
19/08:00am 19.5 - - - - SSW 35 44 19 24 - - -
19/07:30am 19.6 - - - - SSW 35 44 19 24 - - -
19/07:00am 20.0 - - - - SSW 39 50 21 27 - - -
19/06:30am 20.2 - - - - SSW 37 50 20 27 - - -
19/06:00am 20.9 - - - - SSW 37 48 20 26 - - -
19/05:30am 21.7 - - - - S 39 52 21 28 - - -
19/05:00am 21.9 - - - - S 39 52 21 28 - - -
19/04:30am 21.7 - - - - S 39 50 21 27 - - -
19/04:00am 21.5 - - - - S 35 46 19 25 - - -
19/03:30am 21.8 - - - - S 33 44 18 24 - - -
19/03:00am 21.9 - - - - S 32 41 17 22 - - -
19/02:30am 21.8 - - - - S 35 43 19 23 - - -
19/02:00am 22.0 - - - - S 28 39 15 21 - - -
19/01:30am 22.1 - - - - S 32 39 17 21 - - -
19/01:00am 22.2 - - - - S 30 39 16 21 - - -
19/12:30am 22.2 - - - - SSE 30 37 16 20 - - -
19/12:00am 22.2 - - - - S 28 41 15 22 - - -
 
Date/Time
EDT
Temp
°C
App
Temp
°C
Dew
Point
°C
Rel
Hum
%
Delta-T
°C
Wind Press
QNH
hPa
Press
MSL
hPa
Rain since
9am
mm
Dir  Spd
km/h
Gust
km/h
Spd
kts
Gust
kts
18/11:30pm 22.2 - - - - S 28 35 15 19 - - -
18/11:00pm 21.8 - - - - SSW 24 32 13 17 - - -
18/10:30pm 21.6 - - - - SSW 28 35 15 19 - - -
18/10:00pm 21.3 - - - - SSW 30 39 16 21 - - -
18/09:30pm 21.8 - - - - SSW 26 32 14 17 - - -
18/09:00pm 21.9 - - - - S 20 26 11 14 - - -
18/08:30pm 21.9 - - - - S 22 30 12 16 - - -
18/08:00pm 22.0 - - - - S 22 30 12 16 - - -
18/07:30pm 22.0 - - - - SSE 24 32 13 17 - - -
18/07:00pm 21.6 - - - - SSE 20 28 11 15 - - -
18/06:30pm 21.6 - - - - S 22 30 12 16 - - -
18/06:00pm 21.7 - - - - S 26 33 14 18 - - -
18/05:30pm 21.6 - - - - S 28 37 15 20 - - -
18/05:00pm 21.6 - - - - SSW 32 37 17 20 - - -
18/04:30pm 21.4 - - - - SSW 32 41 17 22 - - -
18/04:00pm 21.4 - - - - SSW 33 43 18 23 - - -
18/03:30pm 21.7 - - - - SSW 32 39 17 21 - - -
18/03:00pm 22.2 - - - - SSW 32 37 17 20 - - -
18/02:30pm 22.0 - - - - SSW 28 32 15 17 - - -
18/02:00pm 22.0 - - - - SSW 28 32 15 17 - - -
18/01:30pm 22.5 - - - - SSW 24 33 13 18 - - -
18/01:00pm 22.6 - - - - SSW 28 35 15 19 - - -
18/12:30pm 22.6 - - - - SSW 24 33 13 18 - - -
18/12:00pm 22.4 - - - - SSW 24 30 13 16 - - -
18/11:30am 22.2 - - - - SSW 28 35 15 19 - - -
18/11:00am 22.8 - - - - SSW 24 30 13 16 - - -
18/10:30am 22.7 - - - - SSW 28 33 15 18 - - -
18/10:00am 22.8 - - - - SSW 33 39 18 21 - - -
18/09:30am 22.8 - - - - SSW 30 37 16 20 - - -
18/09:00am 22.9 - - - - SSW 28 39 15 21 - - -
18/08:30am 23.0 - - - - SSW 28 32 15 17 - - -
18/08:00am 23.0 - - - - SSW 30 35 16 19 - - -
18/07:30am 23.1 - - - - SSW 28 33 15 18 - - -
18/07:00am 23.2 - - - - SSW 30 37 16 20 - - -
18/06:30am 23.2 - - - - SSW 28 39 15 21 - - -
18/06:00am 23.0 - - - - SSW 26 37 14 20 - - -
18/05:30am 23.6 - - - - SSW 24 33 13 18 - - -
18/05:00am 24.9 - - - - SSW 20 24 11 13 - - -
18/04:30am 25.4 - - - - SSW 15 15 8 8 - - -
18/04:00am 25.8 - - - - SW 17 20 9 11 - - -
18/03:30am 25.3 - - - - WSW 11 17 6 9 - - -
18/03:00am 25.7 - - - - WSW 13 15 7 8 - - -
18/02:30am 24.6 - - - - SSW 7 9 4 5 - - -
18/02:00am 23.8 - - - - NNE 4 6 2 3 - - -
18/01:30am 23.9 - - - - CALM 0 6 0 3 - - -
18/01:00am 23.9 - - - - NNE 2 7 1 4 - - -
18/12:30am 23.9 - - - - NNE 6 7 3 4 - - -
18/12:00am 23.9 - - - - NNE 6 7 3 4 - - -
 
Date/Time
EDT
Temp
°C
App
Temp
°C
Dew
Point
°C
Rel
Hum
%
Delta-T
°C
Wind Press
QNH
hPa
Press
MSL
hPa
Rain since
9am
mm
Dir  Spd
km/h
Gust
km/h
Spd
kts
Gust
kts
17/11:30pm 24.1 - - - - N 7 9 4 5 - - -
17/11:00pm 24.0 - - - - NNE 7 9 4 5 - - -
17/10:30pm 24.0 - - - - NE 6 7 3 4 - - -
17/10:00pm 24.1 - - - - NNE 9 11 5 6 - - -
17/09:30pm 24.5 - - - - NNE 11 13 6 7 - - -
17/09:00pm 25.1 - - - - N 15 20 8 11 - - -
17/08:30pm 25.3 - - - - N 19 24 10 13 - - -
17/08:00pm 25.3 - - - - N 17 19 9 10 - - -
17/07:30pm 24.8 - - - - NNE 19 22 10 12 - - -
17/07:00pm 24.5 - - - - NNE 17 20 9 11 - - -

Latest Capital City Observations: Canberra | Sydney | Melbourne | Brisbane | Adelaide | Perth | Hobart | Darwin

Other formats

Comma delimited format used in spreadsheet applications
http://www.bom.gov.au/fwo/IDN60901/IDN60901.95766.axf

JavaScript Object Notation format (JSON) in row-major order
http://www.bom.gov.au/fwo/IDN60901/IDN60901.95766.json

Data quality

Most of these data are generated automatically and are frequently updated. Quality checks on data are not normally performed. It is possible for incorrect values to appear. Refer to information at About Latest Weather Observations and please check the disclaimer before using these data.